Time;durP1;ratioP1;P1;durP2;ratioP2;P2;SDS_P1;SDS_P2;PMS_P1;PMS_P2;Temp;Humidity;BMP_temperature;BMP_pressure;BME280_temperature;BME280_humidity;BME280_pressure;Samples;Min_cycle;Max_cycle;Signal;HPM_P1;HPM_P2
2022/07/10 00:04:03;;;;;;;3.72;1.20;;;;;;;12.58;100.00;97040.22;10412052;28;20238;-73
2022/07/10 00:09:04;;;;;;;9.45;1.70;;;;;;;12.45;100.00;97040.69;10413162;28;20216;-73
2022/07/10 00:14:04;;;;;;;4.97;1.25;;;;;;;12.45;100.00;97045.13;10411630;28;20225;-73
2022/07/10 00:19:05;;;;;;;4.60;1.35;;;;;;;12.47;100.00;97059.75;10412857;28;20203;-73
2022/07/10 00:24:06;;;;;;;3.75;1.20;;;;;;;12.51;100.00;97035.78;10412320;28;20184;-72
2022/07/10 00:29:07;;;;;;;4.93;1.00;;;;;;;12.27;100.00;97042.63;10411431;28;20192;-73
2022/07/10 00:34:08;;;;;;;5.88;1.13;;;;;;;12.13;100.00;97050.09;10411714;28;20227;-73
2022/07/10 00:39:08;;;;;;;3.50;1.00;;;;;;;12.15;100.00;97049.13;10411783;28;20188;-73
2022/07/10 00:44:08;;;;;;;4.15;1.10;;;;;;;12.11;100.00;97057.34;10410875;28;20334;-74
2022/07/10 00:49:09;;;;;;;8.88;1.20;;;;;;;12.07;100.00;97050.75;10411645;28;20283;-73
2022/07/10 00:54:09;;;;;;;9.90;1.58;;;;;;;11.98;98.26;97043.00;10410619;28;20228;-73
2022/07/10 00:59:10;;;;;;;3.05;1.15;;;;;;;11.98;95.26;97030.69;10410248;28;20211;-73
2022/07/10 01:04:10;;;;;;;4.47;1.00;;;;;;;11.68;94.07;97030.16;10392301;28;20229;-73
2022/07/10 01:09:11;;;;;;;5.65;1.20;;;;;;;11.63;94.22;97036.88;10410258;28;20220;-73
2022/07/10 01:14:12;;;;;;;4.07;1.25;;;;;;;11.38;96.37;97048.03;10392023;28;20270;-73
2022/07/10 01:19:12;;;;;;;5.32;1.13;;;;;;;11.32;95.94;97038.13;10410005;28;20192;-73
2022/07/10 01:24:13;;;;;;;9.18;1.38;;;;;;;11.19;99.53;97054.28;10409378;28;20200;-73
2022/07/10 01:29:13;;;;;;;6.70;1.20;;;;;;;11.10;99.49;97049.09;10408360;28;20193;-73
2022/07/10 01:34:13;;;;;;;2.83;1.00;;;;;;;11.21;99.28;97048.88;10409062;28;20327;-73
2022/07/10 01:39:14;;;;;;;7.03;1.65;;;;;;;11.19;98.71;97042.94;10409496;28;20188;-73
2022/07/10 01:44:14;;;;;;;4.95;1.17;;;;;;;11.01;100.00;97056.91;10408496;28;20195;-72
2022/07/10 01:49:15;;;;;;;5.95;1.25;;;;;;;11.01;100.00;97045.59;10408882;28;20196;-73
2022/07/10 01:54:15;;;;;;;5.15;1.20;;;;;;;11.02;100.00;97040.19;10408496;28;20561;-73
2022/07/10 01:59:15;;;;;;;4.47;1.10;;;;;;;11.03;100.00;97035.78;10408326;28;20219;-73
2022/07/10 02:09:38;;;;;;;5.55;2.10;;;;;;;10.97;100.00;97039.00;10408330;28;20235;-72
2022/07/10 02:14:40;;;;;;;8.52;1.05;;;;;;;10.86;100.00;97027.78;10407469;28;20280;-73
2022/07/10 02:19:40;;;;;;;6.90;1.23;;;;;;;10.73;100.00;97039.63;10390603;28;20184;-73
2022/07/10 02:24:40;;;;;;;9.43;1.42;;;;;;;10.71;100.00;97037.13;10408006;28;20204;-73
2022/07/10 02:29:41;;;;;;;7.10;1.20;;;;;;;10.81;100.00;97024.78;10406926;28;20284;-72
2022/07/10 02:34:41;;;;;;;2.08;0.95;;;;;;;10.87;100.00;97018.09;10407657;28;20203;-73
2022/07/10 02:39:41;;;;;;;3.75;1.27;;;;;;;10.86;100.00;97017.28;10412285;28;20212;-73
2022/07/10 02:44:42;;;;;;;8.13;1.20;;;;;;;10.82;100.00;97023.00;10415534;28;20266;-73
2022/07/10 02:49:43;;;;;;;5.07;1.48;;;;;;;10.86;100.00;97011.25;10416117;28;20189;-72
2022/07/10 02:54:43;;;;;;;4.05;1.30;;;;;;;10.84;100.00;97018.41;10414601;28;20203;-72
2022/07/10 02:59:43;;;;;;;4.47;1.65;;;;;;;10.77;100.00;97015.56;10415894;28;20200;-72
2022/07/10 03:04:44;;;;;;;5.53;1.15;;;;;;;10.86;100.00;97006.81;10410963;28;20228;-73
2022/07/10 03:09:44;;;;;;;8.48;1.23;;;;;;;10.67;100.00;97018.28;10408833;28;20267;-73
2022/07/10 03:14:44;;;;;;;6.32;1.30;;;;;;;10.54;100.00;97015.19;10407581;28;20308;-72
2022/07/10 03:19:45;;;;;;;7.78;1.42;;;;;;;10.55;100.00;97005.53;10407764;28;20189;-73
2022/07/10 03:24:46;;;;;;;4.40;1.08;;;;;;;10.53;100.00;97006.53;10406764;28;20196;-72
2022/07/10 03:29:46;;;;;;;3.08;1.23;;;;;;;10.66;100.00;97005.34;10407320;28;20570;-73
2022/07/10 03:34:47;;;;;;;6.82;1.10;;;;;;;10.53;100.00;97003.91;10406608;28;20193;-73
2022/07/10 03:39:48;;;;;;;6.53;1.25;;;;;;;10.64;100.00;97005.47;10388943;28;20211;-73
2022/07/10 03:44:48;;;;;;;4.60;1.30;;;;;;;10.52;100.00;96996.16;10406422;28;20197;-73
2022/07/10 03:49:49;;;;;;;5.03;1.50;;;;;;;10.53;100.00;96997.81;10406273;28;20227;-73
2022/07/10 03:54:49;;;;;;;4.33;1.00;;;;;;;10.35;100.00;96996.03;10388525;28;20239;-72
2022/07/10 03:59:50;;;;;;;4.57;1.30;;;;;;;10.66;100.00;96993.03;10388416;28;20700;-73
2022/07/10 04:04:51;;;;;;;5.38;1.40;;;;;;;10.72;100.00;96989.00;10412190;28;20761;-73
2022/07/10 04:09:51;;;;;;;4.85;1.15;;;;;;;10.73;100.00;96981.97;10412592;28;20228;-73
2022/07/10 04:14:52;;;;;;;7.87;1.50;;;;;;;10.82;100.00;96984.50;10412216;28;20603;-73
2022/07/10 04:19:52;;;;;;;8.20;1.30;;;;;;;10.80;100.00;96983.81;10412450;28;20197;-73
2022/07/10 04:24:55;;;;;;;12.37;1.73;;;;;;;10.68;100.00;96987.66;10412044;28;20629;-72
2022/07/10 04:29:56;;;;;;;8.93;1.58;;;;;;;10.77;100.00;96992.00;10412144;28;20654;-73
2022/07/10 04:34:56;;;;;;;8.23;1.23;;;;;;;10.86;100.00;96988.47;10411874;28;20231;-73
2022/07/10 04:39:57;;;;;;;6.00;1.10;;;;;;;10.66;100.00;96994.84;10411854;28;20283;-73
2022/07/10 04:44:57;;;;;;;3.97;1.02;;;;;;;10.83;100.00;96991.38;10406836;28;20663;-72
2022/07/10 04:49:57;;;;;;;8.07;1.77;;;;;;;10.70;100.00;96985.69;10409227;28;20212;-73
2022/07/10 04:54:58;;;;;;;6.60;1.33;;;;;;;10.92;100.00;96988.81;10392959;28;20283;-73
2022/07/10 04:59:59;;;;;;;7.78;1.77;;;;;;;10.93;100.00;96980.81;10410537;28;20200;-72
2022/07/10 05:04:59;;;;;;;7.17;1.27;;;;;;;10.93;100.00;96990.47;10410094;28;20722;-73
2022/07/10 05:10:00;;;;;;;5.03;1.77;;;;;;;10.93;100.00;96990.47;10410730;28;20304;-72
2022/07/10 05:15:01;;;;;;;5.22;1.08;;;;;;;11.00;100.00;96983.66;10410137;28;20193;-73
2022/07/10 05:20:01;;;;;;;5.00;1.50;;;;;;;11.18;100.00;96979.22;10409978;28;20338;-73
2022/07/10 05:25:02;;;;;;;7.53;1.45;;;;;;;11.37;100.00;96962.44;10409786;28;20181;-73
2022/07/10 05:30:02;;;;;;;9.50;2.30;;;;;;;11.68;100.00;96972.41;10409592;28;20227;-73
2022/07/10 05:35:03;;;;;;;8.57;1.60;;;;;;;11.87;100.00;96970.56;10409026;28;20452;-73
2022/07/10 05:40:04;;;;;;;6.10;1.73;;;;;;;11.94;100.00;96975.03;10409625;28;20188;-73
2022/07/10 05:45:05;;;;;;;3.30;1.15;;;;;;;12.04;100.00;96967.03;10408800;28;20668;-73
2022/07/10 05:50:06;;;;;;;9.77;1.42;;;;;;;11.99;99.75;96961.44;10409119;28;20699;-73
2022/07/10 05:55:07;;;;;;;5.18;1.30;;;;;;;11.77;100.00;96984.59;10408813;28;20206;-73
2022/07/10 06:00:08;;;;;;;5.13;1.65;;;;;;;11.98;100.00;96979.97;10408540;28;20541;-73
2022/07/10 06:05:14;;;;;;;9.38;1.27;;;;;;;11.81;100.00;96973.78;10406652;28;20282;-72
2022/07/10 06:10:15;;;;;;;4.97;1.27;;;;;;;11.88;100.00;96990.56;10408639;28;20262;-73
2022/07/10 06:15:15;;;;;;;3.05;1.05;;;;;;;11.37;100.00;96995.72;10407822;28;20529;-73
2022/07/10 06:20:15;;;;;;;12.68;2.03;;;;;;;11.06;100.00;96990.91;10408259;28;20275;-73
2022/07/10 06:25:16;;;;;;;7.65;1.67;;;;;;;11.35;100.00;96997.69;10407646;28;20200;-73
2022/07/10 06:30:16;;;;;;;8.55;2.05;;;;;;;11.32;100.00;97006.66;10408099;28;20220;-73
2022/07/10 06:35:17;;;;;;;9.38;1.60;;;;;;;10.95;100.00;97006.88;10407228;28;20295;-73
2022/07/10 06:40:20;;;;;;;3.47;1.10;;;;;;;10.71;100.00;97019.59;10408110;28;20180;-72
2022/07/10 06:45:20;;;;;;;3.35;1.20;;;;;;;10.32;100.00;97001.53;10407334;28;20193;-72
2022/07/10 06:50:21;;;;;;;1.52;1.05;;;;;;;10.49;100.00;97020.03;10407310;28;20604;-73
2022/07/10 06:55:21;;;;;;;5.20;1.10;;;;;;;10.50;100.00;97019.91;10407430;28;20641;-73
2022/07/10 07:00:22;;;;;;;5.63;1.43;;;;;;;10.53;100.00;97024.88;10407218;28;20246;-75
2022/07/10 07:05:22;;;;;;;4.10;1.10;;;;;;;10.23;100.00;97025.97;10409110;28;20257;-75
2022/07/10 07:10:23;;;;;;;4.93;1.50;;;;;;;10.16;100.00;97036.19;10407209;28;20208;-75
2022/07/10 07:15:24;;;;;;;3.57;1.47;;;;;;;9.97;100.00;97041.53;10407050;28;20197;-75
2022/07/10 07:25:46;;;;;;;2.13;1.03;;;;;;;9.88;100.00;97042.41;10410523;28;20188;-75
2022/07/10 07:30:47;;;;;;;13.33;8.53;;;;;;;9.82;100.00;97043.81;10413966;28;20580;-75
2022/07/10 07:35:47;;;;;;;4.13;1.83;;;;;;;9.85;100.00;97045.28;10414229;28;20212;-74
2022/07/10 07:40:48;;;;;;;1.63;1.10;;;;;;;9.97;100.00;97052.81;10413739;28;20184;-74
2022/07/10 07:45:48;;;;;;;1.30;1.00;;;;;;;9.84;100.00;97062.78;10413539;28;20199;-74
2022/07/10 07:50:48;;;;;;;1.90;0.90;;;;;;;9.70;100.00;97061.44;10413318;28;20697;-74
2022/07/10 07:55:49;;;;;;;2.47;1.13;;;;;;;9.88;100.00;97058.94;10413232;28;20196;-74
2022/07/10 08:00:49;;;;;;;2.40;0.70;;;;;;;10.33;100.00;97052.94;10413309;28;20220;-73
2022/07/10 08:05:50;;;;;;;2.58;0.77;;;;;;;10.70;100.00;97043.34;10412377;28;20298;-73
2022/07/10 08:10:50;;;;;;;1.13;0.70;;;;;;;11.74;100.00;97032.16;10413091;28;20224;-73
2022/07/10 08:15:50;;;;;;;0.85;0.43;;;;;;;12.08;100.00;97038.41;10411933;28;20284;-73
2022/07/10 08:20:51;;;;;;;1.48;0.73;;;;;;;13.00;100.00;97027.94;10413138;28;20189;-73
2022/07/10 08:25:51;;;;;;;2.13;0.80;;;;;;;12.59;100.00;97004.28;10411388;28;20254;-75
2022/07/10 08:30:51;;;;;;;1.65;0.60;;;;;;;13.13;100.00;97002.00;10411859;28;20688;-74
2022/07/10 08:35:53;;;;;;;3.97;0.90;;;;;;;13.34;100.00;97003.34;10410298;28;20676;-74
2022/07/10 08:40:57;;;;;;;3.95;1.00;;;;;;;14.98;100.00;96986.75;10392955;28;20216;-74
2022/07/10 08:46:42;;;;;;;4.53;1.00;;;;;;;15.18;91.28;96951.97;10406412;28;20181;-75
2022/07/10 08:52:03;;;;;;;2.83;0.70;;;;;;;14.98;94.89;96994.69;10389219;28;20625;-74
2022/07/10 08:57:03;;;;;;;4.85;0.75;;;;;;;14.58;97.14;97016.88;10407171;28;20668;-74
2022/07/10 09:02:04;;;;;;;2.00;0.65;;;;;;;14.37;88.31;96943.69;10410651;28;20228;-74
2022/07/10 09:07:05;;;;;;;4.78;1.92;;;;;;;13.53;99.57;97005.56;10410658;28;20271;-74
2022/07/10 09:12:06;;;;;;;3.55;1.20;;;;;;;13.69;95.53;96978.41;10409922;28;20228;-74
2022/07/10 09:17:06;;;;;;;4.88;1.48;;;;;;;15.07;91.39;96963.78;10391253;28;20185;-75
2022/07/10 09:22:07;;;;;;;3.85;0.93;;;;;;;14.54;92.29;96979.47;10389501;28;20189;-75
2022/07/10 09:27:12;;;;;;;3.08;1.00;;;;;;;15.87;84.29;96925.31;10410868;28;20195;-75
2022/07/10 09:32:12;;;;;;;6.50;1.20;;;;;;;16.36;80.61;96913.25;10406411;28;20226;-75
2022/07/10 09:37:18;;;;;;;5.20;1.40;;;;;;;17.03;75.54;96849.50;10388773;28;20187;-75
2022/07/10 09:42:32;;;;;;;2.85;0.98;;;;;;;17.53;71.80;96801.69;10402894;28;20208;-75
2022/07/10 09:47:32;;;;;;;2.38;1.17;;;;;;;17.29;70.96;96823.19;10404903;28;20186;-75
2022/07/10 09:52:33;;;;;;;5.30;1.10;;;;;;;17.70;68.68;96795.00;10408571;28;20228;-75
2022/07/10 09:57:34;;;;;;;3.35;1.00;;;;;;;17.47;69.24;96821.84;10408448;28;20185;-75
2022/07/10 10:02:35;;;;;;;4.07;1.10;;;;;;;16.84;69.63;96832.47;10390919;28;20263;-75
2022/07/10 10:07:37;;;;;;;4.68;1.05;;;;;;;17.52;69.25;96821.25;10391021;28;20572;-75
2022/07/10 10:12:48;;;;;;;1.88;0.90;;;;;;;16.68;66.80;96792.06;10408135;28;20224;-74
2022/07/10 10:17:50;;;;;;;4.47;1.05;;;;;;;15.69;70.42;96856.97;10408592;28;20625;-75
2022/07/10 10:22:52;;;;;;;2.90;1.25;;;;;;;15.73;70.04;96844.25;10390431;28;20189;-75
2022/07/10 10:27:53;;;;;;;4.00;1.30;;;;;;;16.19;67.41;96799.00;10390650;28;20216;-74
2022/07/10 10:32:53;;;;;;;4.90;1.10;;;;;;;17.00;66.61;96803.09;10390372;28;20362;-74
2022/07/10 10:37:54;;;;;;;5.93;1.52;;;;;;;17.14;66.67;96814.56;10406354;28;20200;-74
2022/07/10 10:42:55;;;;;;;5.05;1.00;;;;;;;15.98;68.37;96847.38;10406046;28;20196;-75
2022/07/10 10:47:59;;;;;;;4.70;1.27;;;;;;;15.34;70.04;96867.34;10408257;28;20199;-75
2022/07/10 10:53:01;;;;;;;3.85;1.20;;;;;;;14.55;72.45;96904.66;10389276;28;20232;-75
2022/07/10 10:58:18;;;;;;;6.22;1.20;;;;;;;14.09;72.39;96896.75;10415946;28;20191;-75
2022/07/10 11:03:20;;;;;;;12.13;1.58;;;;;;;13.76;73.57;96911.91;10445024;28;20317;-74
2022/07/10 11:08:38;;;;;;;2.63;0.93;;;;;;;14.16;75.61;96945.09;10455065;28;20268;-74
2022/07/10 11:13:39;;;;;;;4.20;1.50;;;;;;;15.01;74.17;96927.56;10437254;28;20259;-75
2022/07/10 11:18:39;;;;;;;2.55;1.15;;;;;;;15.79;73.40;96914.00;10418492;28;20233;-74
2022/07/10 11:23:57;;;;;;;1.52;1.10;;;;;;;16.09;71.37;96895.47;10383617;28;20730;-73
2022/07/10 11:29:03;;;;;;;4.82;1.17;;;;;;;15.90;69.40;96862.56;10385406;28;20612;-73
2022/07/10 11:34:03;;;;;;;2.15;0.85;;;;;;;15.56;72.57;96917.59;10386370;28;20240;-74
2022/07/10 11:39:08;;;;;;;11.60;1.55;;;;;;;16.12;70.07;96876.59;10386425;28;20213;-74
2022/07/10 11:44:13;;;;;;;3.88;0.88;;;;;;;16.89;68.08;96851.25;10352767;28;20222;-73
2022/07/10 11:49:14;;;;;;;4.43;1.27;;;;;;;17.27;65.69;96814.66;10365523;28;20276;-73
2022/07/10 11:54:18;;;;;;;5.47;1.10;;;;;;;16.85;66.31;96834.91;10362859;28;20704;-74
2022/07/10 11:59:23;;;;;;;5.45;1.42;;;;;;;17.49;64.25;96801.28;10364904;28;20202;-73
2022/07/10 12:04:25;;;;;;;3.38;1.20;;;;;;;17.03;66.66;96850.34;10364116;28;20230;-73
2022/07/10 12:09:26;;;;;;;5.20;1.27;;;;;;;17.52;65.75;96839.78;10364533;28;20259;-73
2022/07/10 12:14:26;;;;;;;4.35;1.25;;;;;;;17.81;61.84;96752.06;10364171;28;20265;-73
2022/07/10 12:19:30;;;;;;;6.95;1.17;;;;;;;17.53;63.42;96805.16;10363312;28;20189;-73
2022/07/10 12:24:31;;;;;;;8.07;1.35;;;;;;;16.69;63.83;96796.34;10362989;28;20603;-74
2022/07/10 12:29:31;;;;;;;3.40;1.23;;;;;;;16.71;65.71;96849.06;10362639;28;20259;-73
2022/07/10 12:34:42;;;;;;;5.38;1.60;;;;;;;16.04;67.03;96869.59;10363528;28;20308;-72
2022/07/10 12:39:47;;;;;;;8.73;1.65;;;;;;;16.02;68.11;96887.47;10363526;28;20208;-74
2022/07/10 12:44:48;;;;;;;5.75;1.55;;;;;;;16.37;66.68;96869.09;10362922;28;20284;-73
2022/07/10 12:49:54;;;;;;;7.35;1.30;;;;;;;15.83;68.91;96910.84;10362499;28;20701;-73
2022/07/10 12:55:09;;;;;;;5.22;1.40;;;;;;;16.07;69.65;96932.66;10362979;28;20659;-74
2022/07/10 13:00:13;;;;;;;5.90;1.38;;;;;;;16.60;68.52;96911.25;10362229;28;20229;-73
2022/07/10 13:05:24;;;;;;;5.68;1.80;;;;;;;16.74;65.34;96848.69;10360035;28;20245;-72
2022/07/10 13:10:25;;;;;;;4.75;1.30;;;;;;;16.57;65.35;96850.78;10344281;28;20217;-73
2022/07/10 13:15:25;;;;;;;3.47;1.40;;;;;;;17.16;66.57;96885.84;10361780;28;20268;-74
2022/07/10 13:20:26;;;;;;;4.28;1.33;;;;;;;17.98;61.75;96791.47;10361679;28;20198;-73
2022/07/10 13:25:26;;;;;;;5.22;1.40;;;;;;;18.11;63.24;96833.06;10361206;28;20288;-73
2022/07/10 13:30:26;;;;;;;2.90;1.30;;;;;;;17.24;62.26;96782.44;10363093;28;20228;-73
2022/07/10 13:35:28;;;;;;;2.83;1.20;;;;;;;17.08;62.25;96789.69;10365961;28;20189;-74
2022/07/10 13:40:30;;;;;;;7.18;2.22;;;;;;;16.59;65.16;96839.00;10361276;28;20215;-73
2022/07/10 13:45:36;;;;;;;14.88;4.85;;;;;;;16.54;66.04;96856.47;10360828;28;20189;-73
2022/07/10 13:50:38;;;;;;;5.93;1.52;;;;;;;17.47;63.66;96814.72;10360428;28;20248;-73
2022/07/10 13:55:38;;;;;;;6.78;1.13;;;;;;;17.28;62.30;96781.03;10361142;28;20189;-73
2022/07/10 14:00:39;;;;;;;7.57;1.63;;;;;;;18.97;58.05;96731.41;10360506;28;20185;-73
2022/07/10 14:05:39;;;;;;;4.88;1.73;;;;;;;19.63;54.65;96668.34;10364376;28;20248;-73
2022/07/10 14:10:40;;;;;;;5.63;1.30;;;;;;;19.79;54.00;96659.06;10364961;28;20225;-73
2022/07/10 14:15:44;;;;;;;8.25;1.38;;;;;;;17.70;59.91;96747.31;10364752;28;20268;-73
2022/07/10 14:21:02;;;;;;;6.75;1.30;;;;;;;17.60;62.66;96824.53;10364579;28;20208;-73
2022/07/10 14:26:05;;;;;;;5.82;1.50;;;;;;;18.40;59.03;96748.84;10364482;28;20204;-73
2022/07/10 14:31:06;;;;;;;6.15;1.60;;;;;;;17.24;60.77;96754.13;10363788;28;20299;-74
2022/07/10 14:36:07;;;;;;;8.77;1.70;;;;;;;17.45;59.12;96725.88;10371849;28;20189;-72
2022/07/10 14:41:07;;;;;;;6.97;1.42;;;;;;;17.83;58.20;96738.59;10372476;28;20196;-73
2022/07/10 14:46:07;;;;;;;4.20;1.30;;;;;;;17.32;61.23;96790.22;10372961;28;20197;-73
2022/07/10 14:51:08;;;;;;;6.07;2.15;;;;;;;17.60;60.96;96794.59;10372288;28;20240;-72
2022/07/10 14:56:08;;;;;;;10.15;1.95;;;;;;;18.78;59.67;96799.41;10371432;28;20750;-73
2022/07/10 15:01:09;;;;;;;6.55;1.63;;;;;;;19.67;54.27;96687.34;10371300;28;20612;-73
2022/07/10 15:06:10;;;;;;;7.00;1.50;;;;;;;17.56;60.21;96772.97;10369908;28;20240;-73
2022/07/10 15:11:10;;;;;;;5.32;1.40;;;;;;;16.67;62.57;96805.47;10371940;28;20229;-72
2022/07/10 15:16:10;;;;;;;4.15;1.30;;;;;;;17.03;62.26;96802.69;10371412;28;20287;-73
2022/07/10 15:21:11;;;;;;;5.45;1.50;;;;;;;17.13;62.81;96825.34;10372049;28;20196;-73
2022/07/10 15:26:12;;;;;;;4.70;1.42;;;;;;;16.30;63.70;96808.25;10370315;28;20189;-73
2022/07/10 15:31:12;;;;;;;6.38;1.60;;;;;;;17.08;63.81;96828.59;10373429;28;20595;-72
2022/07/10 15:36:13;;;;;;;12.55;2.67;;;;;;;16.82;62.07;96776.28;10375430;28;20196;-73
2022/07/10 15:41:13;;;;;;;8.88;2.30;;;;;;;15.73;65.34;96830.19;10414661;28;20193;-73
2022/07/10 15:46:14;;;;;;;6.60;1.80;;;;;;;16.20;65.67;96847.38;10414695;28;20706;-72
2022/07/10 15:51:14;;;;;;;7.40;1.50;;;;;;;16.73;64.03;96813.47;10411997;28;20617;-73
2022/07/10 15:56:15;;;;;;;8.40;1.77;;;;;;;19.13;56.93;96705.44;10410327;28;20199;-73
2022/07/10 16:01:15;;;;;;;3.25;1.13;;;;;;;20.58;54.51;96687.81;10411154;28;20496;-73
2022/07/10 16:06:16;;;;;;;9.35;1.30;;;;;;;20.15;53.04;96638.91;10409791;28;20327;-74
2022/07/10 16:11:17;;;;;;;7.68;1.70;;;;;;;18.31;57.03;96692.53;10410669;28;20581;-74
2022/07/10 16:16:18;;;;;;;6.78;1.15;;;;;;;17.34;59.97;96726.47;10412501;28;20192;-74
2022/07/10 16:21:19;;;;;;;11.93;1.77;;;;;;;17.29;60.96;96750.91;10411526;28;20196;-74
2022/07/10 16:26:20;;;;;;;6.03;2.70;;;;;;;17.59;60.31;96737.31;10411946;28;20192;-74
2022/07/10 16:31:20;;;;;;;10.88;1.80;;;;;;;17.25;60.75;96736.41;10412449;28;20226;-74
2022/07/10 16:36:21;;;;;;;11.23;1.73;;;;;;;17.57;60.16;96732.22;10411279;28;20652;-74
2022/07/10 16:41:21;;;;;;;8.25;1.33;;;;;;;17.47;60.14;96731.78;10409081;28;20529;-74
2022/07/10 16:46:22;;;;;;;8.80;1.70;;;;;;;18.06;57.40;96679.91;10409789;28;20590;-74
2022/07/10 16:51:22;;;;;;;6.55;1.38;;;;;;;17.42;59.57;96716.50;10408969;28;20584;-74
2022/07/10 16:56:22;;;;;;;6.82;1.30;;;;;;;17.25;61.53;96766.34;10408431;28;20271;-74
2022/07/10 17:01:23;;;;;;;4.97;1.58;;;;;;;17.24;60.84;96748.00;10409789;28;20239;-74
2022/07/10 17:06:23;;;;;;;8.90;2.05;;;;;;;17.03;62.09;96768.28;10409222;28;20232;-74
2022/07/10 17:11:24;;;;;;;6.20;1.67;;;;;;;16.87;62.06;96758.03;10409134;28;20231;-74
2022/07/10 17:16:24;;;;;;;6.28;1.20;;;;;;;16.49;63.57;96780.34;10408474;28;20196;-74
2022/07/10 17:21:25;;;;;;;7.38;2.03;;;;;;;16.65;63.29;96781.88;10407514;28;20192;-73
2022/07/10 17:26:44;;;;;;;5.00;1.58;;;;;;;16.32;63.65;96779.78;10406432;28;20201;-74
2022/07/10 17:39:17;;;;;;;4.15;1.10;;;;;;;16.11;65.07;96793.88;10410595;28;20696;-75
2022/07/10 17:57:36;;;;;;;7.20;1.58;;;;;;;15.91;67.78;96850.97;10320997;28;20232;-75
2022/07/10 18:03:12;;;;;;;6.00;1.67;;;;;;;15.71;67.48;96843.59;10398059;28;20228;-73
2022/07/10 18:08:14;;;;;;;6.18;1.27;;;;;;;15.82;67.31;96842.34;10407663;28;20216;-74
2022/07/10 18:13:39;;;;;;;9.05;1.80;;;;;;;15.54;69.75;96881.78;10407892;28;20216;-73
2022/07/10 18:18:47;;;;;;;7.10;1.75;;;;;;;15.29;69.26;96871.53;10406127;28;20195;-74
2022/07/10 18:23:48;;;;;;;8.50;2.08;;;;;;;15.07;70.18;96889.91;10406625;28;20661;-75
2022/07/10 18:28:48;;;;;;;9.23;1.77;;;;;;;14.99;72.80;96926.88;10406858;28;20642;-75
2022/07/10 18:39:09;;;;;;;10.48;2.10;;;;;;;15.08;74.68;96938.19;10406536;28;20715;-74
2022/07/10 18:44:09;;;;;;;5.88;1.33;;;;;;;14.94;74.58;96930.06;10406412;28;20193;-73
2022/07/10 18:49:09;;;;;;;4.15;1.50;;;;;;;14.73;75.48;96930.75;10406623;28;20192;-73
2022/07/10 18:54:10;;;;;;;4.82;1.40;;;;;;;14.48;77.11;96943.25;10405499;28;20316;-73
2022/07/10 18:59:11;;;;;;;7.40;1.88;;;;;;;14.51;77.61;96942.09;10407565;28;20261;-73
2022/07/10 19:04:11;;;;;;;7.00;1.70;;;;;;;14.41;78.92;96950.22;10405639;28;20240;-72
2022/07/10 19:09:12;;;;;;;9.50;1.77;;;;;;;14.23;79.26;96947.88;10406054;28;20554;-73
2022/07/10 19:14:12;;;;;;;7.15;1.70;;;;;;;14.12;81.24;96964.06;10406039;28;20695;-72
2022/07/10 19:19:12;;;;;;;6.13;1.50;;;;;;;14.01;81.79;96963.47;10406194;28;20632;-73
2022/07/10 19:24:13;;;;;;;4.35;1.73;;;;;;;13.56;85.20;96980.75;10395770;28;20193;-73
2022/07/10 19:29:13;;;;;;;8.80;1.60;;;;;;;13.48;86.89;96972.88;10413705;28;20254;-73
2022/07/10 19:34:14;;;;;;;5.43;1.58;;;;;;;13.49;85.58;96964.81;10413232;28;20224;-72
2022/07/10 19:39:17;;;;;;;11.77;1.70;;;;;;;13.36;86.00;96967.94;10412908;28;20246;-73
2022/07/10 19:44:17;;;;;;;3.00;1.40;;;;;;;13.33;85.29;96964.81;10412556;28;20221;-72
2022/07/10 19:49:17;;;;;;;9.35;2.85;;;;;;;13.27;84.12;96960.22;10412660;28;20887;-73
2022/07/10 19:54:19;;;;;;;8.80;1.98;;;;;;;13.19;87.50;96990.81;10411941;28;20220;-73
2022/07/10 19:59:19;;;;;;;8.82;1.65;;;;;;;12.98;89.41;97001.00;10412371;28;20192;-73
2022/07/10 20:04:20;;;;;;;4.10;1.55;;;;;;;13.13;88.53;96990.66;10411580;28;20236;-73
2022/07/10 20:09:20;;;;;;;5.60;1.40;;;;;;;12.91;89.35;96997.38;10411730;28;20299;-73
2022/07/10 20:14:21;;;;;;;7.18;2.00;;;;;;;12.94;88.26;96997.91;10410389;28;20220;-73
2022/07/10 20:19:21;;;;;;;18.33;2.40;;;;;;;13.09;85.73;96982.25;10410451;28;20323;-73
2022/07/10 20:24:22;;;;;;;9.90;2.10;;;;;;;13.13;85.61;96983.56;10410136;28;20197;-73
2022/07/10 20:29:26;;;;;;;5.70;1.42;;;;;;;13.17;83.65;96966.47;10411820;28;20196;-74
2022/07/10 20:34:26;;;;;;;6.53;1.65;;;;;;;13.41;81.64;96951.66;10393607;28;20720;-73
2022/07/10 20:39:27;;;;;;;4.57;1.60;;;;;;;13.47;82.05;96965.97;10412331;28;20319;-73
2022/07/10 20:44:27;;;;;;;10.55;1.92;;;;;;;13.51;81.05;96944.41;10408379;28;20188;-73
2022/07/10 20:49:27;;;;;;;9.27;1.48;;;;;;;13.68;80.33;96958.31;10409397;28;20216;-73
2022/07/10 20:54:28;;;;;;;3.72;1.38;;;;;;;13.62;80.46;96966.09;10409126;28;20220;-72
2022/07/10 20:59:40;;;;;;;3.75;1.65;;;;;;;13.64;81.66;96982.53;10409947;28;20292;-73
2022/07/10 21:04:44;;;;;;;8.70;1.98;;;;;;;13.47;83.66;97011.50;10410699;28;20240;-73
2022/07/10 21:09:45;;;;;;;10.02;2.20;;;;;;;13.54;83.53;96994.06;10393262;28;20586;-73
2022/07/10 21:14:46;;;;;;;7.10;1.50;;;;;;;13.37;82.85;96995.91;10410618;28;20310;-73
2022/07/10 21:19:46;;;;;;;13.38;2.15;;;;;;;13.30;82.50;96996.72;10410309;28;20195;-72
2022/07/10 21:24:47;;;;;;;6.40;1.42;;;;;;;13.27;84.57;97018.91;10410663;28;20280;-73
2022/07/10 21:29:47;;;;;;;6.15;1.38;;;;;;;13.31;83.09;96998.38;10409975;28;20204;-73
2022/07/10 21:34:47;;;;;;;8.73;1.63;;;;;;;13.27;84.34;97008.38;10409636;28;20231;-74
2022/07/10 21:39:48;;;;;;;9.90;1.60;;;;;;;13.44;83.31;97005.78;10410118;28;20192;-73
2022/07/10 21:44:48;;;;;;;3.90;1.25;;;;;;;13.44;83.71;97013.66;10408958;28;20277;-73
2022/07/10 21:49:49;;;;;;;4.00;1.52;;;;;;;13.13;85.26;97020.41;10409549;28;20246;-72
2022/07/10 21:54:50;;;;;;;5.35;1.58;;;;;;;13.14;87.00;97037.00;10408674;28;20236;-73
2022/07/10 21:59:50;;;;;;;7.28;1.77;;;;;;;12.88;90.09;97052.94;10409040;28;20219;-73
2022/07/10 22:04:52;;;;;;;3.33;1.38;;;;;;;12.82;92.31;97054.41;10408638;28;20319;-73
2022/07/10 22:09:53;;;;;;;5.70;1.45;;;;;;;12.70;94.34;97047.81;10408743;28;20216;-73
2022/07/10 22:14:53;;;;;;;5.88;1.67;;;;;;;12.89;95.88;97058.03;10408360;28;20637;-73
2022/07/10 22:19:54;;;;;;;2.33;1.20;;;;;;;12.83;97.19;97054.25;10408408;28;20626;-73
2022/07/10 22:24:55;;;;;;;6.63;1.70;;;;;;;12.65;99.46;97056.19;10407926;28;20302;-73
2022/07/10 22:29:55;;;;;;;4.90;1.40;;;;;;;12.67;100.00;97064.72;10408308;28;20180;-73
2022/07/10 22:34:55;;;;;;;9.73;1.52;;;;;;;12.60;100.00;97061.09;10407917;28;20299;-73
2022/07/10 22:39:56;;;;;;;7.03;1.50;;;;;;;12.69;100.00;97054.06;10407992;28;20199;-73
2022/07/10 22:44:56;;;;;;;4.97;1.52;;;;;;;12.55;100.00;97055.50;10390003;28;20196;-73
2022/07/10 22:49:56;;;;;;;4.28;1.40;;;;;;;12.58;100.00;97060.44;10408010;28;20330;-73
2022/07/10 22:54:57;;;;;;;3.22;1.70;;;;;;;12.43;100.00;97060.22;10408916;28;20562;-72
2022/07/10 22:59:57;;;;;;;4.63;1.15;;;;;;;12.37;100.00;97051.16;10415889;28;20625;-73
2022/07/10 23:04:57;;;;;;;2.53;1.60;;;;;;;12.26;100.00;97051.47;10415246;28;20600;-72
2022/07/10 23:09:58;;;;;;;3.35;1.42;;;;;;;12.39;100.00;97046.59;10415345;28;20620;-73
2022/07/10 23:14:59;;;;;;;5.75;1.48;;;;;;;12.27;100.00;97048.69;10415215;28;20650;-73
2022/07/10 23:19:59;;;;;;;5.55;1.60;;;;;;;12.15;100.00;97054.38;10415115;28;20205;-73
2022/07/10 23:24:59;;;;;;;6.10;1.30;;;;;;;12.29;100.00;97056.41;10412753;28;20634;-73
2022/07/10 23:30:00;;;;;;;4.55;1.92;;;;;;;12.12;100.00;97050.25;10414382;28;20624;-73
2022/07/10 23:35:00;;;;;;;4.10;1.50;;;;;;;12.01;100.00;97058.44;10414360;28;20687;-73
2022/07/10 23:40:01;;;;;;;3.70;1.50;;;;;;;12.17;100.00;97055.03;10414237;28;20205;-73
2022/07/10 23:45:01;;;;;;;5.90;1.92;;;;;;;11.83;100.00;97045.34;10410332;28;20641;-73
2022/07/10 23:50:08;;;;;;;5.53;1.40;;;;;;;11.70;100.00;97054.47;10408151;28;20570;-73
2022/07/10 23:55:10;;;;;;;4.18;1.60;;;;;;;11.93;100.00;97051.34;10413180;28;20252;-72
